sensor_id;sensor_type;location;lat;lon;timestamp;pressure;altitude;pressure_sealevel;temperature;humidity
12219;BME280;6172;42.646;23.344;2023-03-19T00:00:13;95119.03;;;0.47;100.00
12219;BME280;6172;42.646;23.344;2023-03-19T00:02:40;95114.97;;;0.53;100.00
12219;BME280;6172;42.646;23.344;2023-03-19T00:05:10;95110.03;;;0.55;100.00
12219;BME280;6172;42.646;23.344;2023-03-19T00:07:37;95111.13;;;0.66;100.00
12219;BME280;6172;42.646;23.344;2023-03-19T00:10:04;95113.03;;;0.65;100.00
12219;BME280;6172;42.646;23.344;2023-03-19T00:12:33;95104.16;;;0.77;100.00
12219;BME280;6172;42.646;23.344;2023-03-19T00:15:00;95111.09;;;0.78;100.00
12219;BME280;6172;42.646;23.344;2023-03-19T00:17:27;95105.41;;;0.67;100.00
12219;BME280;6172;42.646;23.344;2023-03-19T00:19:54;95110.28;;;0.50;100.00
12219;BME280;6172;42.646;23.344;2023-03-19T00:22:21;95107.03;;;0.44;100.00
12219;BME280;6172;42.646;23.344;2023-03-19T00:24:47;95105.91;;;0.57;100.00
12219;BME280;6172;42.646;23.344;2023-03-19T00:27:15;95099.84;;;0.60;100.00
12219;BME280;6172;42.646;23.344;2023-03-19T00:29:43;95083.34;;;0.58;100.00
12219;BME280;6172;42.646;23.344;2023-03-19T00:32:11;95084.34;;;0.54;100.00
12219;BME280;6172;42.646;23.344;2023-03-19T00:34:39;95077.28;;;0.61;100.00
12219;BME280;6172;42.646;23.344;2023-03-19T00:37:06;95089.44;;;0.71;100.00
12219;BME280;6172;42.646;23.344;2023-03-19T00:39:33;95081.00;;;0.57;100.00
12219;BME280;6172;42.646;23.344;2023-03-19T00:42:00;95082.09;;;0.56;100.00
12219;BME280;6172;42.646;23.344;2023-03-19T00:44:27;95086.38;;;0.57;100.00
12219;BME280;6172;42.646;23.344;2023-03-19T00:46:56;95080.78;;;0.50;100.00
12219;BME280;6172;42.646;23.344;2023-03-19T00:49:22;95081.16;;;0.36;100.00
12219;BME280;6172;42.646;23.344;2023-03-19T00:51:50;95077.47;;;0.41;100.00
12219;BME280;6172;42.646;23.344;2023-03-19T00:54:16;95078.09;;;0.50;100.00
12219;BME280;6172;42.646;23.344;2023-03-19T00:56:44;95068.97;;;0.39;100.00
12219;BME280;6172;42.646;23.344;2023-03-19T00:59:10;95075.81;;;0.36;100.00
12219;BME280;6172;42.646;23.344;2023-03-19T01:01:37;95083.31;;;0.31;100.00
12219;BME280;6172;42.646;23.344;2023-03-19T01:04:06;95065.16;;;0.40;100.00
12219;BME280;6172;42.646;23.344;2023-03-19T01:06:32;95069.09;;;0.42;100.00
12219;BME280;6172;42.646;23.344;2023-03-19T01:08:59;95068.66;;;0.28;100.00
12219;BME280;6172;42.646;23.344;2023-03-19T01:11:26;95070.97;;;0.02;100.00
12219;BME280;6172;42.646;23.344;2023-03-19T01:13:54;95071.53;;;-0.04;100.00
12219;BME280;6172;42.646;23.344;2023-03-19T01:16:21;95065.63;;;-0.22;100.00
12219;BME280;6172;42.646;23.344;2023-03-19T01:18:48;95061.06;;;-0.21;100.00
12219;BME280;6172;42.646;23.344;2023-03-19T01:21:16;95064.75;;;-0.14;100.00
12219;BME280;6172;42.646;23.344;2023-03-19T01:23:43;95060.59;;;-0.11;100.00
12219;BME280;6172;42.646;23.344;2023-03-19T01:26:10;95058.72;;;-0.23;100.00
12219;BME280;6172;42.646;23.344;2023-03-19T01:28:38;95066.66;;;-0.38;100.00
12219;BME280;6172;42.646;23.344;2023-03-19T01:31:06;95053.59;;;-0.40;100.00
12219;BME280;6172;42.646;23.344;2023-03-19T01:33:33;95050.78;;;-0.31;100.00
12219;BME280;6172;42.646;23.344;2023-03-19T01:36:02;95061.50;;;-0.31;100.00
12219;BME280;6172;42.646;23.344;2023-03-19T01:38:31;95061.16;;;-0.42;100.00
12219;BME280;6172;42.646;23.344;2023-03-19T01:40:58;95067.84;;;-0.48;100.00
12219;BME280;6172;42.646;23.344;2023-03-19T01:43:26;95059.72;;;-0.51;100.00
12219;BME280;6172;42.646;23.344;2023-03-19T01:45:56;95068.53;;;-0.51;100.00
12219;BME280;6172;42.646;23.344;2023-03-19T01:48:28;95059.50;;;-0.46;100.00
12219;BME280;6172;42.646;23.344;2023-03-19T01:50:57;95065.88;;;-0.51;100.00
12219;BME280;6172;42.646;23.344;2023-03-19T01:53:28;95063.28;;;-0.47;100.00
12219;BME280;6172;42.646;23.344;2023-03-19T01:56:02;95065.31;;;-0.44;100.00
12219;BME280;6172;42.646;23.344;2023-03-19T01:58:31;95071.44;;;-0.56;100.00
12219;BME280;6172;42.646;23.344;2023-03-19T02:00:58;95067.31;;;-0.65;100.00
12219;BME280;6172;42.646;23.344;2023-03-19T02:03:25;95068.88;;;-0.64;100.00
12219;BME280;6172;42.646;23.344;2023-03-19T02:05:53;95059.63;;;-0.43;100.00
12219;BME280;6172;42.646;23.344;2023-03-19T02:08:23;95051.03;;;-0.48;100.00
12219;BME280;6172;42.646;23.344;2023-03-19T02:10:51;95057.06;;;-0.39;100.00
12219;BME280;6172;42.646;23.344;2023-03-19T02:13:21;95064.72;;;-0.38;100.00
12219;BME280;6172;42.646;23.344;2023-03-19T02:15:49;95069.53;;;-0.31;100.00
12219;BME280;6172;42.646;23.344;2023-03-19T02:18:16;95068.41;;;-0.30;100.00
12219;BME280;6172;42.646;23.344;2023-03-19T02:20:48;95069.53;;;-0.43;100.00
12219;BME280;6172;42.646;23.344;2023-03-19T02:23:24;95060.75;;;-0.44;100.00
12219;BME280;6172;42.646;23.344;2023-03-19T02:26:00;95059.28;;;-0.41;100.00
12219;BME280;6172;42.646;23.344;2023-03-19T02:28:29;95066.53;;;-0.42;100.00
12219;BME280;6172;42.646;23.344;2023-03-19T02:30:58;95071.53;;;-0.64;100.00
12219;BME280;6172;42.646;23.344;2023-03-19T02:33:26;95063.97;;;-1.19;100.00
12219;BME280;6172;42.646;23.344;2023-03-19T02:35:54;95051.19;;;-1.34;100.00
12219;BME280;6172;42.646;23.344;2023-03-19T02:38:22;95074.75;;;-1.27;100.00
12219;BME280;6172;42.646;23.344;2023-03-19T02:40:52;95081.91;;;-1.19;100.00
12219;BME280;6172;42.646;23.344;2023-03-19T02:43:22;95081.56;;;-1.18;100.00
12219;BME280;6172;42.646;23.344;2023-03-19T02:45:49;95071.19;;;-1.31;100.00
12219;BME280;6172;42.646;23.344;2023-03-19T02:48:17;95075.00;;;-1.20;100.00
12219;BME280;6172;42.646;23.344;2023-03-19T02:50:44;95077.25;;;-1.10;100.00
12219;BME280;6172;42.646;23.344;2023-03-19T02:53:11;95072.88;;;-1.27;100.00
12219;BME280;6172;42.646;23.344;2023-03-19T02:55:40;95071.84;;;-1.34;100.00
12219;BME280;6172;42.646;23.344;2023-03-19T02:58:07;95082.78;;;-1.27;100.00
12219;BME280;6172;42.646;23.344;2023-03-19T03:00:36;95076.34;;;-1.14;100.00
12219;BME280;6172;42.646;23.344;2023-03-19T03:03:04;95081.94;;;-1.07;100.00
12219;BME280;6172;42.646;23.344;2023-03-19T03:05:32;95080.06;;;-0.95;100.00
12219;BME280;6172;42.646;23.344;2023-03-19T03:07:59;95068.13;;;-0.97;100.00
12219;BME280;6172;42.646;23.344;2023-03-19T03:10:26;95080.53;;;-0.81;100.00
12219;BME280;6172;42.646;23.344;2023-03-19T03:12:53;95071.63;;;-0.85;100.00
12219;BME280;6172;42.646;23.344;2023-03-19T03:15:20;95085.00;;;-0.85;100.00
12219;BME280;6172;42.646;23.344;2023-03-19T03:17:48;95086.16;;;-0.74;100.00
12219;BME280;6172;42.646;23.344;2023-03-19T03:20:16;95086.00;;;-0.77;100.00
12219;BME280;6172;42.646;23.344;2023-03-19T03:22:45;95086.22;;;-0.94;100.00
12219;BME280;6172;42.646;23.344;2023-03-19T03:25:16;95091.66;;;-0.91;100.00
12219;BME280;6172;42.646;23.344;2023-03-19T03:27:45;95103.38;;;-0.95;100.00
12219;BME280;6172;42.646;23.344;2023-03-19T03:30:15;95100.16;;;-0.89;100.00
12219;BME280;6172;42.646;23.344;2023-03-19T03:32:42;95093.94;;;-1.13;100.00
12219;BME280;6172;42.646;23.344;2023-03-19T03:35:11;95102.13;;;-1.10;100.00
12219;BME280;6172;42.646;23.344;2023-03-19T03:37:46;95103.00;;;-1.06;100.00
12219;BME280;6172;42.646;23.344;2023-03-19T03:40:13;95101.56;;;-1.03;100.00
12219;BME280;6172;42.646;23.344;2023-03-19T03:42:42;95108.03;;;-1.04;100.00
12219;BME280;6172;42.646;23.344;2023-03-19T03:45:10;95104.78;;;-1.10;100.00
12219;BME280;6172;42.646;23.344;2023-03-19T03:47:37;95112.44;;;-1.20;100.00
12219;BME280;6172;42.646;23.344;2023-03-19T03:50:05;95116.63;;;-1.31;100.00
12219;BME280;6172;42.646;23.344;2023-03-19T03:52:34;95117.19;;;-1.26;100.00
12219;BME280;6172;42.646;23.344;2023-03-19T03:55:02;95123.19;;;-1.29;100.00
12219;BME280;6172;42.646;23.344;2023-03-19T03:57:29;95128.31;;;-1.36;100.00
12219;BME280;6172;42.646;23.344;2023-03-19T03:59:56;95122.63;;;-1.55;100.00
12219;BME280;6172;42.646;23.344;2023-03-19T04:02:23;95111.34;;;-1.60;100.00
12219;BME280;6172;42.646;23.344;2023-03-19T04:04:50;95117.47;;;-1.39;100.00
12219;BME280;6172;42.646;23.344;2023-03-19T04:07:17;95113.16;;;-1.52;100.00
12219;BME280;6172;42.646;23.344;2023-03-19T04:09:48;95100.03;;;-1.57;100.00
12219;BME280;6172;42.646;23.344;2023-03-19T04:12:15;95114.47;;;-1.58;100.00
12219;BME280;6172;42.646;23.344;2023-03-19T04:14:43;95108.28;;;-1.50;100.00
12219;BME280;6172;42.646;23.344;2023-03-19T04:17:09;95099.69;;;-1.56;100.00
12219;BME280;6172;42.646;23.344;2023-03-19T04:19:36;95103.03;;;-1.59;100.00
12219;BME280;6172;42.646;23.344;2023-03-19T04:22:04;95102.69;;;-1.57;100.00
12219;BME280;6172;42.646;23.344;2023-03-19T04:24:32;95101.97;;;-1.67;100.00
12219;BME280;6172;42.646;23.344;2023-03-19T04:27:00;95109.59;;;-1.56;100.00
12219;BME280;6172;42.646;23.344;2023-03-19T04:29:27;95110.97;;;-1.71;100.00
12219;BME280;6172;42.646;23.344;2023-03-19T04:31:57;95122.56;;;-1.67;100.00
12219;BME280;6172;42.646;23.344;2023-03-19T04:34:24;95109.00;;;-1.62;100.00
12219;BME280;6172;42.646;23.344;2023-03-19T04:36:51;95121.19;;;-1.52;100.00
12219;BME280;6172;42.646;23.344;2023-03-19T04:39:20;95120.47;;;-1.41;100.00
12219;BME280;6172;42.646;23.344;2023-03-19T04:41:48;95117.59;;;-1.36;100.00
12219;BME280;6172;42.646;23.344;2023-03-19T04:44:17;95127.69;;;-1.21;100.00
12219;BME280;6172;42.646;23.344;2023-03-19T04:46:44;95130.50;;;-1.17;100.00
12219;BME280;6172;42.646;23.344;2023-03-19T04:49:11;95129.19;;;-1.11;100.00
12219;BME280;6172;42.646;23.344;2023-03-19T04:51:39;95123.38;;;-1.34;100.00
12219;BME280;6172;42.646;23.344;2023-03-19T04:54:06;95110.66;;;-1.16;100.00
12219;BME280;6172;42.646;23.344;2023-03-19T04:56:34;95106.91;;;-1.03;100.00
12219;BME280;6172;42.646;23.344;2023-03-19T04:59:01;95097.09;;;-1.11;100.00
12219;BME280;6172;42.646;23.344;2023-03-19T05:01:30;95107.97;;;-1.16;100.00
12219;BME280;6172;42.646;23.344;2023-03-19T05:03:57;95120.91;;;-1.18;100.00
12219;BME280;6172;42.646;23.344;2023-03-19T05:06:24;95115.25;;;-1.37;100.00
12219;BME280;6172;42.646;23.344;2023-03-19T05:08:52;95116.03;;;-1.37;100.00
12219;BME280;6172;42.646;23.344;2023-03-19T05:11:20;95114.13;;;-1.36;100.00
12219;BME280;6172;42.646;23.344;2023-03-19T05:13:47;95123.03;;;-1.12;100.00
12219;BME280;6172;42.646;23.344;2023-03-19T05:16:14;95119.25;;;-1.11;100.00
12219;BME280;6172;42.646;23.344;2023-03-19T05:18:48;95130.75;;;-1.10;100.00
12219;BME280;6172;42.646;23.344;2023-03-19T05:21:15;95108.72;;;-0.95;100.00
12219;BME280;6172;42.646;23.344;2023-03-19T05:23:44;95112.22;;;-0.83;100.00
12219;BME280;6172;42.646;23.344;2023-03-19T05:26:11;95110.09;;;-0.77;100.00
12219;BME280;6172;42.646;23.344;2023-03-19T05:28:38;95109.66;;;-0.67;100.00
12219;BME280;6172;42.646;23.344;2023-03-19T05:31:07;95121.25;;;-0.75;100.00
12219;BME280;6172;42.646;23.344;2023-03-19T05:33:34;95118.50;;;-0.67;100.00
12219;BME280;6172;42.646;23.344;2023-03-19T05:36:03;95117.47;;;-0.74;100.00
12219;BME280;6172;42.646;23.344;2023-03-19T05:38:32;95105.44;;;-0.68;100.00
12219;BME280;6172;42.646;23.344;2023-03-19T05:41:02;95112.56;;;-0.60;100.00
12219;BME280;6172;42.646;23.344;2023-03-19T05:43:30;95114.81;;;-0.62;100.00
12219;BME280;6172;42.646;23.344;2023-03-19T05:45:57;95115.94;;;-0.51;100.00
12219;BME280;6172;42.646;23.344;2023-03-19T05:48:24;95113.81;;;-0.46;100.00
12219;BME280;6172;42.646;23.344;2023-03-19T05:50:52;95116.13;;;0.79;100.00
12219;BME280;6172;42.646;23.344;2023-03-19T05:53:21;95119.19;;;2.14;100.00
12219;BME280;6172;42.646;23.344;2023-03-19T05:55:48;95117.19;;;2.99;98.77
12219;BME280;6172;42.646;23.344;2023-03-19T05:58:15;95104.84;;;5.19;85.94
12219;BME280;6172;42.646;23.344;2023-03-19T06:00:42;95097.00;;;6.92;72.89
12219;BME280;6172;42.646;23.344;2023-03-19T06:03:09;95102.78;;;6.87;63.61
12219;BME280;6172;42.646;23.344;2023-03-19T06:05:36;95101.13;;;8.77;53.09
12219;BME280;6172;42.646;23.344;2023-03-19T06:08:03;95085.44;;;10.02;47.62
12219;BME280;6172;42.646;23.344;2023-03-19T06:10:33;95089.91;;;7.69;49.12
12219;BME280;6172;42.646;23.344;2023-03-19T06:12:59;95100.13;;;9.46;47.36
12219;BME280;6172;42.646;23.344;2023-03-19T06:15:33;95099.31;;;9.56;46.68
12219;BME280;6172;42.646;23.344;2023-03-19T06:18:01;95087.53;;;10.76;44.06
12219;BME280;6172;42.646;23.344;2023-03-19T06:20:28;95090.97;;;12.56;39.88
12219;BME280;6172;42.646;23.344;2023-03-19T06:22:55;95082.69;;;11.84;39.87
12219;BME280;6172;42.646;23.344;2023-03-19T06:25:21;95095.13;;;10.03;42.48
12219;BME280;6172;42.646;23.344;2023-03-19T06:27:50;95103.13;;;9.69;44.38
12219;BME280;6172;42.646;23.344;2023-03-19T06:30:17;95091.78;;;11.77;40.64
12219;BME280;6172;42.646;23.344;2023-03-19T06:33:01;95094.69;;;10.11;42.49
12219;BME280;6172;42.646;23.344;2023-03-19T06:35:28;95102.16;;;10.52;41.26
12219;BME280;6172;42.646;23.344;2023-03-19T06:37:55;95107.31;;;7.58;46.75
12219;BME280;6172;42.646;23.344;2023-03-19T06:40:22;95103.06;;;7.67;47.98
12219;BME280;6172;42.646;23.344;2023-03-19T06:42:53;95112.06;;;8.17;46.65
12219;BME280;6172;42.646;23.344;2023-03-19T06:45:23;95107.16;;;9.37;44.45
12219;BME280;6172;42.646;23.344;2023-03-19T06:47:50;95106.97;;;8.79;45.26
12219;BME280;6172;42.646;23.344;2023-03-19T06:50:19;95113.06;;;9.11;44.26
12219;BME280;6172;42.646;23.344;2023-03-19T06:52:47;95106.53;;;8.91;45.50
12219;BME280;6172;42.646;23.344;2023-03-19T06:55:14;95119.41;;;8.73;45.15
12219;BME280;6172;42.646;23.344;2023-03-19T06:57:47;95131.84;;;8.32;45.74
12219;BME280;6172;42.646;23.344;2023-03-19T07:00:19;95127.13;;;9.85;44.47
12219;BME280;6172;42.646;23.344;2023-03-19T07:02:51;95124.63;;;10.63;41.85
12219;BME280;6172;42.646;23.344;2023-03-19T07:05:20;95128.50;;;10.17;43.57
12219;BME280;6172;42.646;23.344;2023-03-19T07:07:50;95128.50;;;10.65;42.27
12219;BME280;6172;42.646;23.344;2023-03-19T07:10:18;95124.16;;;11.45;40.24
12219;BME280;6172;42.646;23.344;2023-03-19T07:12:49;95110.94;;;10.22;41.58
12219;BME280;6172;42.646;23.344;2023-03-19T07:15:25;95122.66;;;9.47;43.04
12219;BME280;6172;42.646;23.344;2023-03-19T07:17:52;95120.59;;;8.47;45.09
12219;BME280;6172;42.646;23.344;2023-03-19T07:20:19;95119.19;;;10.15;42.59
12219;BME280;6172;42.646;23.344;2023-03-19T07:22:49;95128.22;;;10.53;42.63
12219;BME280;6172;42.646;23.344;2023-03-19T07:25:17;95126.50;;;10.25;42.43
12219;BME280;6172;42.646;23.344;2023-03-19T07:27:44;95122.22;;;10.24;41.61
12219;BME280;6172;42.646;23.344;2023-03-19T07:30:14;95122.97;;;10.76;41.14
12219;BME280;6172;42.646;23.344;2023-03-19T07:32:42;95103.63;;;11.37;39.61
12219;BME280;6172;42.646;23.344;2023-03-19T07:35:10;95102.44;;;10.61;41.69
12219;BME280;6172;42.646;23.344;2023-03-19T07:37:39;95117.91;;;10.30;41.52
12219;BME280;6172;42.646;23.344;2023-03-19T07:40:07;95113.72;;;10.18;41.34
12219;BME280;6172;42.646;23.344;2023-03-19T07:42:34;95107.63;;;11.26;40.25
12219;BME280;6172;42.646;23.344;2023-03-19T07:45:03;95111.34;;;11.42;39.38
12219;BME280;6172;42.646;23.344;2023-03-19T07:47:32;95113.50;;;11.21;40.52
12219;BME280;6172;42.646;23.344;2023-03-19T07:50:02;95121.25;;;11.29;39.76
12219;BME280;6172;42.646;23.344;2023-03-19T07:52:39;95106.75;;;10.99;39.68
12219;BME280;6172;42.646;23.344;2023-03-19T07:55:06;95115.78;;;11.29;39.54
12219;BME280;6172;42.646;23.344;2023-03-19T07:57:33;95113.00;;;11.66;38.66
12219;BME280;6172;42.646;23.344;2023-03-19T08:00:02;95114.19;;;10.54;40.27
12219;BME280;6172;42.646;23.344;2023-03-19T08:02:33;95104.25;;;11.15;39.61
12219;BME280;6172;42.646;23.344;2023-03-19T08:05:04;95121.47;;;10.20;40.22
12219;BME280;6172;42.646;23.344;2023-03-19T08:07:33;95114.19;;;10.06;41.50
12219;BME280;6172;42.646;23.344;2023-03-19T08:10:00;95116.69;;;8.73;43.22
12219;BME280;6172;42.646;23.344;2023-03-19T08:12:28;95115.53;;;9.74;42.09
12219;BME280;6172;42.646;23.344;2023-03-19T08:14:56;95119.06;;;10.32;41.58
12219;BME280;6172;42.646;23.344;2023-03-19T08:17:24;95118.66;;;9.65;41.42
12219;BME280;6172;42.646;23.344;2023-03-19T08:19:52;95116.28;;;9.74;41.87
12219;BME280;6172;42.646;23.344;2023-03-19T08:22:20;95111.16;;;9.94;40.51
12219;BME280;6172;42.646;23.344;2023-03-19T08:24:49;95118.84;;;10.06;40.96
12219;BME280;6172;42.646;23.344;2023-03-19T08:27:19;95123.75;;;10.73;40.26
12219;BME280;6172;42.646;23.344;2023-03-19T08:29:49;95107.75;;;10.75;40.05
12219;BME280;6172;42.646;23.344;2023-03-19T08:32:18;95119.28;;;10.52;39.92
12219;BME280;6172;42.646;23.344;2023-03-19T08:34:45;95103.00;;;10.86;39.67
12219;BME280;6172;42.646;23.344;2023-03-19T08:37:12;95104.91;;;10.89;39.51
12219;BME280;6172;42.646;23.344;2023-03-19T08:39:41;95109.19;;;10.86;39.12
12219;BME280;6172;42.646;23.344;2023-03-19T08:42:08;95106.44;;;10.93;39.42
12219;BME280;6172;42.646;23.344;2023-03-19T08:44:36;95100.72;;;11.18;39.30
12219;BME280;6172;42.646;23.344;2023-03-19T08:47:03;95104.41;;;11.94;37.22
12219;BME280;6172;42.646;23.344;2023-03-19T08:49:33;95092.72;;;11.64;37.13
12219;BME280;6172;42.646;23.344;2023-03-19T08:52:00;95096.00;;;11.82;37.42
12219;BME280;6172;42.646;23.344;2023-03-19T08:54:27;95092.31;;;11.65;37.47
12219;BME280;6172;42.646;23.344;2023-03-19T08:56:55;95084.31;;;12.08;36.24
12219;BME280;6172;42.646;23.344;2023-03-19T08:59:22;95065.97;;;12.31;36.54
12219;BME280;6172;42.646;23.344;2023-03-19T09:01:50;95065.38;;;12.70;35.21
12219;BME280;6172;42.646;23.344;2023-03-19T09:04:19;95076.41;;;12.63;33.58
12219;BME280;6172;42.646;23.344;2023-03-19T09:06:49;95077.47;;;13.12;34.27
12219;BME280;6172;42.646;23.344;2023-03-19T09:09:17;95070.06;;;12.89;34.54
12219;BME280;6172;42.646;23.344;2023-03-19T09:11:45;95069.56;;;13.17;35.17
12219;BME280;6172;42.646;23.344;2023-03-19T09:14:26;95067.16;;;13.39;38.17
12219;BME280;6172;42.646;23.344;2023-03-19T09:16:52;95063.63;;;13.58;36.53
12219;BME280;6172;42.646;23.344;2023-03-19T09:19:20;95052.44;;;13.13;36.24
12219;BME280;6172;42.646;23.344;2023-03-19T09:21:49;95064.13;;;13.72;34.92
12219;BME280;6172;42.646;23.344;2023-03-19T09:24:17;95069.44;;;13.60;34.37
12219;BME280;6172;42.646;23.344;2023-03-19T09:26:45;95050.84;;;13.51;34.57
12219;BME280;6172;42.646;23.344;2023-03-19T09:29:14;95068.34;;;13.18;34.42
12219;BME280;6172;42.646;23.344;2023-03-19T09:31:43;95053.00;;;13.24;37.03
12219;BME280;6172;42.646;23.344;2023-03-19T09:34:11;95067.84;;;13.43;35.74
12219;BME280;6172;42.646;23.344;2023-03-19T09:36:39;95071.66;;;13.49;36.44
12219;BME280;6172;42.646;23.344;2023-03-19T09:39:07;95059.97;;;13.64;35.21
12219;BME280;6172;42.646;23.344;2023-03-19T09:41:39;95049.00;;;13.64;35.46
12219;BME280;6172;42.646;23.344;2023-03-19T09:44:20;95049.56;;;13.20;37.08
12219;BME280;6172;42.646;23.344;2023-03-19T09:46:53;95058.22;;;13.74;36.88
12219;BME280;6172;42.646;23.344;2023-03-19T09:49:24;95058.31;;;13.70;35.92
12219;BME280;6172;42.646;23.344;2023-03-19T09:51:54;95059.75;;;13.55;36.52
12219;BME280;6172;42.646;23.344;2023-03-19T09:54:38;95043.97;;;13.63;36.91
12219;BME280;6172;42.646;23.344;2023-03-19T09:57:10;95037.00;;;13.94;35.76
12219;BME280;6172;42.646;23.344;2023-03-19T09:59:47;95034.28;;;14.10;34.68
12219;BME280;6172;42.646;23.344;2023-03-19T10:02:31;95039.97;;;13.67;35.21
12219;BME280;6172;42.646;23.344;2023-03-19T10:05:13;95037.63;;;13.66;36.86
12219;BME280;6172;42.646;23.344;2023-03-19T10:07:54;95038.03;;;13.84;33.66
12219;BME280;6172;42.646;23.344;2023-03-19T10:10:33;95030.03;;;14.25;33.01
12219;BME280;6172;42.646;23.344;2023-03-19T10:13:10;95027.97;;;14.29;33.88
12219;BME280;6172;42.646;23.344;2023-03-19T10:15:41;95025.38;;;14.06;33.61
12219;BME280;6172;42.646;23.344;2023-03-19T10:18:16;95024.97;;;14.07;33.67
12219;BME280;6172;42.646;23.344;2023-03-19T10:20:48;95021.72;;;14.12;33.12
12219;BME280;6172;42.646;23.344;2023-03-19T10:23:27;95014.72;;;14.56;33.17
12219;BME280;6172;42.646;23.344;2023-03-19T10:25:58;95003.06;;;14.68;31.68
12219;BME280;6172;42.646;23.344;2023-03-19T10:28:28;95009.00;;;14.50;32.16
12219;BME280;6172;42.646;23.344;2023-03-19T10:31:03;95003.56;;;14.63;31.85
12219;BME280;6172;42.646;23.344;2023-03-19T10:33:42;94999.13;;;14.53;31.93
12219;BME280;6172;42.646;23.344;2023-03-19T10:36:11;94987.22;;;14.59;32.02
12219;BME280;6172;42.646;23.344;2023-03-19T10:38:39;94979.44;;;14.58;31.79
12219;BME280;6172;42.646;23.344;2023-03-19T10:41:17;94986.59;;;14.68;31.71
12219;BME280;6172;42.646;23.344;2023-03-19T10:43:53;94977.38;;;14.90;31.92
12219;BME280;6172;42.646;23.344;2023-03-19T10:46:50;94976.56;;;15.06;31.23
12219;BME280;6172;42.646;23.344;2023-03-19T10:49:19;94968.88;;;15.01;30.56
12219;BME280;6172;42.646;23.344;2023-03-19T10:51:50;94950.75;;;15.03;31.13
12219;BME280;6172;42.646;23.344;2023-03-19T10:54:26;94948.81;;;14.75;31.28
12219;BME280;6172;42.646;23.344;2023-03-19T10:56:56;94943.28;;;15.04;30.63
12219;BME280;6172;42.646;23.344;2023-03-19T10:59:25;94942.25;;;15.89;29.77
12219;BME280;6172;42.646;23.344;2023-03-19T11:01:58;94944.88;;;15.68;31.00
12219;BME280;6172;42.646;23.344;2023-03-19T11:04:28;94931.50;;;14.91;30.44
12219;BME280;6172;42.646;23.344;2023-03-19T11:07:05;94937.13;;;14.71;30.82
12219;BME280;6172;42.646;23.344;2023-03-19T11:09:47;94923.06;;;14.41;31.48
12219;BME280;6172;42.646;23.344;2023-03-19T11:12:18;94917.34;;;14.64;31.39
12219;BME280;6172;42.646;23.344;2023-03-19T11:14:51;94918.69;;;13.67;32.00
12219;BME280;6172;42.646;23.344;2023-03-19T11:17:21;94915.94;;;14.43;31.35
12219;BME280;6172;42.646;23.344;2023-03-19T11:19:52;94905.03;;;14.56;30.91
12219;BME280;6172;42.646;23.344;2023-03-19T11:22:21;94915.56;;;14.29;31.93
12219;BME280;6172;42.646;23.344;2023-03-19T11:24:53;94893.63;;;14.86;31.29
12219;BME280;6172;42.646;23.344;2023-03-19T11:27:29;94907.44;;;14.82;30.65
12219;BME280;6172;42.646;23.344;2023-03-19T11:29:57;94893.16;;;14.02;31.21
12219;BME280;6172;42.646;23.344;2023-03-19T11:35:21;94876.97;;;15.18;30.67
12219;BME280;6172;42.646;23.344;2023-03-19T11:37:53;94878.31;;;15.76;29.80
12219;BME280;6172;42.646;23.344;2023-03-19T11:40:30;94873.41;;;16.05;29.84
12219;BME280;6172;42.646;23.344;2023-03-19T11:43:33;94876.78;;;16.22;29.14
12219;BME280;6172;42.646;23.344;2023-03-19T11:46:09;94869.53;;;16.49;28.22
12219;BME280;6172;42.646;23.344;2023-03-19T11:49:02;94864.13;;;17.10;27.82
12219;BME280;6172;42.646;23.344;2023-03-19T11:51:38;94860.47;;;17.13;28.08
12219;BME280;6172;42.646;23.344;2023-03-19T11:54:13;94863.19;;;17.75;27.97
12219;BME280;6172;42.646;23.344;2023-03-19T11:56:47;94861.91;;;17.58;27.67
12219;BME280;6172;42.646;23.344;2023-03-19T11:59:38;94847.06;;;17.24;27.93
12219;BME280;6172;42.646;23.344;2023-03-19T12:05:18;94848.63;;;17.65;26.59
12219;BME280;6172;42.646;23.344;2023-03-19T12:07:55;94852.88;;;16.53;28.63
12219;BME280;6172;42.646;23.344;2023-03-19T12:10:30;94846.34;;;17.02;28.15
12219;BME280;6172;42.646;23.344;2023-03-19T12:13:22;94841.88;;;17.26;27.88
12219;BME280;6172;42.646;23.344;2023-03-19T12:15:59;94833.19;;;15.99;29.13
12219;BME280;6172;42.646;23.344;2023-03-19T12:18:46;94832.38;;;16.54;28.71
12219;BME280;6172;42.646;23.344;2023-03-19T12:21:18;94830.72;;;16.13;29.55
12219;BME280;6172;42.646;23.344;2023-03-19T12:24:00;94827.59;;;16.24;29.04
12219;BME280;6172;42.646;23.344;2023-03-19T12:26:35;94826.56;;;16.30;29.64
12219;BME280;6172;42.646;23.344;2023-03-19T12:29:14;94821.03;;;15.62;29.67
12219;BME280;6172;42.646;23.344;2023-03-19T12:31:54;94828.78;;;15.30;29.56
12219;BME280;6172;42.646;23.344;2023-03-19T12:34:29;94826.78;;;15.18;30.62
12219;BME280;6172;42.646;23.344;2023-03-19T12:37:10;94812.16;;;15.33;30.02
12219;BME280;6172;42.646;23.344;2023-03-19T12:39:43;94820.19;;;15.53;30.05
12219;BME280;6172;42.646;23.344;2023-03-19T12:42:17;94804.34;;;15.57;29.97
12219;BME280;6172;42.646;23.344;2023-03-19T12:44:49;94819.00;;;15.03;30.29
12219;BME280;6172;42.646;23.344;2023-03-19T12:47:25;94803.63;;;15.06;30.58
12219;BME280;6172;42.646;23.344;2023-03-19T12:49:59;94811.66;;;15.26;30.82
12219;BME280;6172;42.646;23.344;2023-03-19T12:52:33;94808.47;;;15.02;30.99
12219;BME280;6172;42.646;23.344;2023-03-19T12:55:05;94798.06;;;15.81;30.16
12219;BME280;6172;42.646;23.344;2023-03-19T12:57:44;94798.75;;;15.73;29.84
12219;BME280;6172;42.646;23.344;2023-03-19T13:00:45;94789.56;;;15.29;30.32
12219;BME280;6172;42.646;23.344;2023-03-19T13:03:24;94793.78;;;15.55;30.62
12219;BME280;6172;42.646;23.344;2023-03-19T13:06:01;94786.63;;;15.83;30.35
12219;BME280;6172;42.646;23.344;2023-03-19T13:08:34;94794.56;;;16.02;30.20
12219;BME280;6172;42.646;23.344;2023-03-19T13:11:16;94784.41;;;15.90;30.62
12219;BME280;6172;42.646;23.344;2023-03-19T13:13:50;94781.41;;;15.97;30.10
12219;BME280;6172;42.646;23.344;2023-03-19T13:16:29;94784.81;;;16.23;32.80
12219;BME280;6172;42.646;23.344;2023-03-19T13:19:06;94776.47;;;16.14;30.61